Saint Onge, South Dakota
Current Conditions -  °F | °C
As of 2:55 AM on Monday 22 Dec 2014 (Local Time) from KSPF Reporting Station
Broken Clouds Broken Clouds  
Wind Chill: -5°   Ceiling: 6000
Heat Index:   Visibility: 10mi
Dew Point: -3°   Wind: 26mph
Humidity: 70%   Direction: 280°W
Pressure: 29.57"   Gusts: 32mph
Location:  44.55°N, 103.72°W
Report Text: KSPF 220955Z AUTO 28023G28KT 10SM BKN060 02/M03 A2957 RMK AO2
Loading
Personal Weather Stations






























Interactive Weather Map New forecast layout! Learn more

10-Day Weather Forecast

Advertisements
Track Severe Weather on mobile